Terminal Aerodrome Forecast
Issued by NWS Upton, NY

Home | Current Version | Previous Version | Text Only | Print | Product List | Glossary On
Versions: 1 2 3 4 5 6 7 8 9 10 11 12 13 14 15 16 17 18 19 20 21 22 23 24 25 26 27
000
FTUS41 KOKX 252347
TAFISP
TAF
KISP 252347Z 2600/2624 12004KT 6SM BR BKN008
     FM260200 VRB03KT 2SM BR BKN004
     FM260400 VRB02KT 1SM BR OVC002
      TEMPO 2608/2612 1/2SM FG OVC002
     FM261400 06004KT 5SM BR BKN008
      TEMPO 2615/2618 SCT008=

USA.gov is the U.S. government's official web portal to all federal, state and local government web resources and services.